sensor_id;sensor_type;location;lat;lon;timestamp;temperature;humidity
10390;DHT22;5241;47.830;12.972;2023-04-20T00:00:20;5.00;99.90
10390;DHT22;5241;47.830;12.972;2023-04-20T00:02:46;5.00;99.90
10390;DHT22;5241;47.830;12.972;2023-04-20T00:05:12;5.00;99.90
10390;DHT22;5241;47.830;12.972;2023-04-20T00:07:37;5.00;99.90
10390;DHT22;5241;47.830;12.972;2023-04-20T00:10:06;4.90;99.90
10390;DHT22;5241;47.830;12.972;2023-04-20T00:12:32;4.90;99.90
10390;DHT22;5241;47.830;12.972;2023-04-20T00:14:58;4.90;99.90
10390;DHT22;5241;47.830;12.972;2023-04-20T00:17:23;5.00;99.90
10390;DHT22;5241;47.830;12.972;2023-04-20T00:19:49;5.00;99.90
10390;DHT22;5241;47.830;12.972;2023-04-20T00:22:14;5.00;99.90
10390;DHT22;5241;47.830;12.972;2023-04-20T00:24:40;4.90;99.90
10390;DHT22;5241;47.830;12.972;2023-04-20T00:27:05;4.90;99.90
10390;DHT22;5241;47.830;12.972;2023-04-20T00:29:31;4.80;99.90
10390;DHT22;5241;47.830;12.972;2023-04-20T00:31:57;4.80;99.90
10390;DHT22;5241;47.830;12.972;2023-04-20T00:34:22;4.80;99.90
10390;DHT22;5241;47.830;12.972;2023-04-20T00:36:48;4.80;99.90
10390;DHT22;5241;47.830;12.972;2023-04-20T00:39:13;4.80;99.90
10390;DHT22;5241;47.830;12.972;2023-04-20T00:41:40;4.90;99.90
10390;DHT22;5241;47.830;12.972;2023-04-20T00:44:06;4.90;99.90
10390;DHT22;5241;47.830;12.972;2023-04-20T00:46:33;4.90;99.90
10390;DHT22;5241;47.830;12.972;2023-04-20T00:48:59;5.00;99.90
10390;DHT22;5241;47.830;12.972;2023-04-20T00:51:26;5.00;99.90
10390;DHT22;5241;47.830;12.972;2023-04-20T00:53:52;5.00;99.90
10390;DHT22;5241;47.830;12.972;2023-04-20T00:56:18;4.90;99.90
10390;DHT22;5241;47.830;12.972;2023-04-20T00:58:44;4.90;99.90
10390;DHT22;5241;47.830;12.972;2023-04-20T01:01:11;4.90;99.90
10390;DHT22;5241;47.830;12.972;2023-04-20T01:03:38;5.00;99.90
10390;DHT22;5241;47.830;12.972;2023-04-20T01:06:04;5.00;99.90
10390;DHT22;5241;47.830;12.972;2023-04-20T01:08:30;4.90;99.90
10390;DHT22;5241;47.830;12.972;2023-04-20T01:10:56;4.90;99.90
10390;DHT22;5241;47.830;12.972;2023-04-20T01:13:22;4.90;99.90
10390;DHT22;5241;47.830;12.972;2023-04-20T01:15:48;4.90;99.90
10390;DHT22;5241;47.830;12.972;2023-04-20T01:18:14;4.90;99.90
10390;DHT22;5241;47.830;12.972;2023-04-20T01:20:39;4.90;99.90
10390;DHT22;5241;47.830;12.972;2023-04-20T01:23:05;4.90;99.90
10390;DHT22;5241;47.830;12.972;2023-04-20T01:25:31;4.90;99.90
10390;DHT22;5241;47.830;12.972;2023-04-20T01:27:56;4.90;99.90
10390;DHT22;5241;47.830;12.972;2023-04-20T01:30:22;4.90;99.90
10390;DHT22;5241;47.830;12.972;2023-04-20T01:32:47;4.90;99.90
10390;DHT22;5241;47.830;12.972;2023-04-20T01:35:13;4.90;99.90
10390;DHT22;5241;47.830;12.972;2023-04-20T01:37:40;4.90;99.90
10390;DHT22;5241;47.830;12.972;2023-04-20T01:40:08;4.90;99.90
10390;DHT22;5241;47.830;12.972;2023-04-20T01:42:34;4.90;99.90
10390;DHT22;5241;47.830;12.972;2023-04-20T01:45:00;4.80;99.90
10390;DHT22;5241;47.830;12.972;2023-04-20T01:47:26;4.70;99.90
10390;DHT22;5241;47.830;12.972;2023-04-20T01:49:51;4.80;99.90
10390;DHT22;5241;47.830;12.972;2023-04-20T01:52:17;4.80;99.90
10390;DHT22;5241;47.830;12.972;2023-04-20T01:54:42;4.80;99.90
10390;DHT22;5241;47.830;12.972;2023-04-20T01:57:08;4.80;99.90
10390;DHT22;5241;47.830;12.972;2023-04-20T01:59:33;4.80;99.90
10390;DHT22;5241;47.830;12.972;2023-04-20T02:01:59;4.70;99.90
10390;DHT22;5241;47.830;12.972;2023-04-20T02:04:24;4.70;99.90
10390;DHT22;5241;47.830;12.972;2023-04-20T02:06:50;4.70;99.90
10390;DHT22;5241;47.830;12.972;2023-04-20T02:09:15;4.70;99.90
10390;DHT22;5241;47.830;12.972;2023-04-20T02:11:41;4.80;99.90
10390;DHT22;5241;47.830;12.972;2023-04-20T02:14:06;4.80;99.90
10390;DHT22;5241;47.830;12.972;2023-04-20T02:16:33;4.80;99.90
10390;DHT22;5241;47.830;12.972;2023-04-20T02:18:59;4.70;99.90
10390;DHT22;5241;47.830;12.972;2023-04-20T02:21:25;4.70;99.90
10390;DHT22;5241;47.830;12.972;2023-04-20T02:23:52;4.70;99.90
10390;DHT22;5241;47.830;12.972;2023-04-20T02:26:17;4.70;99.90
10390;DHT22;5241;47.830;12.972;2023-04-20T02:28:43;4.70;99.90
10390;DHT22;5241;47.830;12.972;2023-04-20T02:31:09;4.70;99.90
10390;DHT22;5241;47.830;12.972;2023-04-20T02:33:34;4.70;99.90
10390;DHT22;5241;47.830;12.972;2023-04-20T02:36:00;4.70;99.90
10390;DHT22;5241;47.830;12.972;2023-04-20T02:38:26;4.70;99.90
10390;DHT22;5241;47.830;12.972;2023-04-20T02:40:52;4.60;99.90
10390;DHT22;5241;47.830;12.972;2023-04-20T02:43:18;4.60;99.90
10390;DHT22;5241;47.830;12.972;2023-04-20T02:45:43;4.60;99.90
10390;DHT22;5241;47.830;12.972;2023-04-20T02:48:09;4.60;99.90
10390;DHT22;5241;47.830;12.972;2023-04-20T02:50:34;4.60;99.90
10390;DHT22;5241;47.830;12.972;2023-04-20T02:53:00;4.60;99.90
10390;DHT22;5241;47.830;12.972;2023-04-20T02:55:26;4.60;99.90
10390;DHT22;5241;47.830;12.972;2023-04-20T02:57:51;4.60;99.90
10390;DHT22;5241;47.830;12.972;2023-04-20T03:00:17;4.70;99.90
10390;DHT22;5241;47.830;12.972;2023-04-20T03:02:43;4.70;99.90
10390;DHT22;5241;47.830;12.972;2023-04-20T03:05:08;4.70;99.90
10390;DHT22;5241;47.830;12.972;2023-04-20T03:07:34;4.70;99.90
10390;DHT22;5241;47.830;12.972;2023-04-20T03:09:59;4.70;99.90
10390;DHT22;5241;47.830;12.972;2023-04-20T03:12:25;4.60;99.90
10390;DHT22;5241;47.830;12.972;2023-04-20T03:14:51;4.70;99.90
10390;DHT22;5241;47.830;12.972;2023-04-20T03:17:16;4.60;99.90
10390;DHT22;5241;47.830;12.972;2023-04-20T03:19:42;4.70;99.90
10390;DHT22;5241;47.830;12.972;2023-04-20T03:22:07;4.70;99.90
10390;DHT22;5241;47.830;12.972;2023-04-20T03:24:33;4.60;99.90
10390;DHT22;5241;47.830;12.972;2023-04-20T03:26:58;4.60;99.90
10390;DHT22;5241;47.830;12.972;2023-04-20T03:29:24;4.60;99.90
10390;DHT22;5241;47.830;12.972;2023-04-20T03:31:49;4.60;99.90
10390;DHT22;5241;47.830;12.972;2023-04-20T03:34:15;4.60;99.90
10390;DHT22;5241;47.830;12.972;2023-04-20T03:36:41;4.60;99.90
10390;DHT22;5241;47.830;12.972;2023-04-20T03:39:07;4.60;99.90
10390;DHT22;5241;47.830;12.972;2023-04-20T03:41:36;4.60;99.90
10390;DHT22;5241;47.830;12.972;2023-04-20T03:44:01;4.50;99.90
10390;DHT22;5241;47.830;12.972;2023-04-20T03:46:27;4.50;99.90
10390;DHT22;5241;47.830;12.972;2023-04-20T03:48:52;4.50;99.90
10390;DHT22;5241;47.830;12.972;2023-04-20T03:51:18;4.50;99.90
10390;DHT22;5241;47.830;12.972;2023-04-20T03:53:43;4.50;99.90
10390;DHT22;5241;47.830;12.972;2023-04-20T03:56:09;4.50;99.90
10390;DHT22;5241;47.830;12.972;2023-04-20T03:58:35;4.50;99.90
10390;DHT22;5241;47.830;12.972;2023-04-20T04:01:09;4.50;99.90
10390;DHT22;5241;47.830;12.972;2023-04-20T04:03:37;4.50;99.90
10390;DHT22;5241;47.830;12.972;2023-04-20T04:06:03;4.50;99.90
10390;DHT22;5241;47.830;12.972;2023-04-20T04:08:29;4.50;99.90
10390;DHT22;5241;47.830;12.972;2023-04-20T04:10:56;4.50;99.90
10390;DHT22;5241;47.830;12.972;2023-04-20T04:13:21;4.60;99.90
10390;DHT22;5241;47.830;12.972;2023-04-20T04:15:47;4.60;99.90
10390;DHT22;5241;47.830;12.972;2023-04-20T04:18:12;4.50;99.90
10390;DHT22;5241;47.830;12.972;2023-04-20T04:20:38;4.50;99.90
10390;DHT22;5241;47.830;12.972;2023-04-20T04:23:04;4.50;99.90
10390;DHT22;5241;47.830;12.972;2023-04-20T04:25:30;4.50;99.90
10390;DHT22;5241;47.830;12.972;2023-04-20T04:27:56;4.50;99.90
10390;DHT22;5241;47.830;12.972;2023-04-20T04:30:23;4.40;99.90
10390;DHT22;5241;47.830;12.972;2023-04-20T04:32:48;4.40;99.90
10390;DHT22;5241;47.830;12.972;2023-04-20T04:35:15;4.40;99.90
10390;DHT22;5241;47.830;12.972;2023-04-20T04:37:40;4.40;99.90
10390;DHT22;5241;47.830;12.972;2023-04-20T04:40:07;4.50;99.90
10390;DHT22;5241;47.830;12.972;2023-04-20T04:42:34;4.40;99.90
10390;DHT22;5241;47.830;12.972;2023-04-20T04:45:00;4.40;99.90
10390;DHT22;5241;47.830;12.972;2023-04-20T04:47:27;4.30;99.90
10390;DHT22;5241;47.830;12.972;2023-04-20T04:49:55;4.30;99.90
10390;DHT22;5241;47.830;12.972;2023-04-20T04:52:22;4.30;99.90
10390;DHT22;5241;47.830;12.972;2023-04-20T04:54:47;4.20;99.90
10390;DHT22;5241;47.830;12.972;2023-04-20T04:57:13;4.20;99.90
10390;DHT22;5241;47.830;12.972;2023-04-20T04:59:39;4.10;99.90
10390;DHT22;5241;47.830;12.972;2023-04-20T05:02:05;4.00;99.90
10390;DHT22;5241;47.830;12.972;2023-04-20T05:04:30;4.00;99.90
10390;DHT22;5241;47.830;12.972;2023-04-20T05:06:56;4.00;99.90
10390;DHT22;5241;47.830;12.972;2023-04-20T05:09:21;3.90;99.90
10390;DHT22;5241;47.830;12.972;2023-04-20T05:11:47;3.90;99.90
10390;DHT22;5241;47.830;12.972;2023-04-20T05:14:12;3.90;99.90
10390;DHT22;5241;47.830;12.972;2023-04-20T05:16:38;3.90;99.90
10390;DHT22;5241;47.830;12.972;2023-04-20T05:19:04;3.90;99.90
10390;DHT22;5241;47.830;12.972;2023-04-20T05:21:29;3.90;99.90
10390;DHT22;5241;47.830;12.972;2023-04-20T05:23:55;3.90;99.90
10390;DHT22;5241;47.830;12.972;2023-04-20T05:26:20;3.90;99.90
10390;DHT22;5241;47.830;12.972;2023-04-20T05:28:46;3.90;99.90
10390;DHT22;5241;47.830;12.972;2023-04-20T05:31:11;4.00;99.90
10390;DHT22;5241;47.830;12.972;2023-04-20T05:33:37;3.90;99.90
10390;DHT22;5241;47.830;12.972;2023-04-20T05:36:02;3.90;99.90
10390;DHT22;5241;47.830;12.972;2023-04-20T05:38:28;3.90;99.90
10390;DHT22;5241;47.830;12.972;2023-04-20T05:40:54;3.80;99.90
10390;DHT22;5241;47.830;12.972;2023-04-20T05:43:20;3.90;99.90
10390;DHT22;5241;47.830;12.972;2023-04-20T05:45:47;3.90;99.90
10390;DHT22;5241;47.830;12.972;2023-04-20T05:48:13;4.00;99.90
10390;DHT22;5241;47.830;12.972;2023-04-20T05:50:38;4.00;99.90
10390;DHT22;5241;47.830;12.972;2023-04-20T05:53:04;4.10;99.90
10390;DHT22;5241;47.830;12.972;2023-04-20T05:55:30;4.00;99.90
10390;DHT22;5241;47.830;12.972;2023-04-20T05:57:56;3.90;99.90
10390;DHT22;5241;47.830;12.972;2023-04-20T06:00:21;4.00;99.90
10390;DHT22;5241;47.830;12.972;2023-04-20T06:02:47;4.00;99.90
10390;DHT22;5241;47.830;12.972;2023-04-20T06:05:13;4.10;99.90
10390;DHT22;5241;47.830;12.972;2023-04-20T06:07:39;4.10;99.90
10390;DHT22;5241;47.830;12.972;2023-04-20T06:10:05;4.10;99.90
10390;DHT22;5241;47.830;12.972;2023-04-20T06:12:31;4.20;99.90
10390;DHT22;5241;47.830;12.972;2023-04-20T06:14:57;4.20;99.90
10390;DHT22;5241;47.830;12.972;2023-04-20T06:17:23;4.00;99.90
10390;DHT22;5241;47.830;12.972;2023-04-20T06:19:48;4.20;99.90
10390;DHT22;5241;47.830;12.972;2023-04-20T06:22:14;4.20;99.90
10390;DHT22;5241;47.830;12.972;2023-04-20T06:24:41;4.40;99.90
10390;DHT22;5241;47.830;12.972;2023-04-20T06:27:10;4.50;99.90
10390;DHT22;5241;47.830;12.972;2023-04-20T06:29:36;4.50;99.90
10390;DHT22;5241;47.830;12.972;2023-04-20T06:32:02;4.60;99.90
10390;DHT22;5241;47.830;12.972;2023-04-20T06:34:27;4.70;99.90
10390;DHT22;5241;47.830;12.972;2023-04-20T06:36:53;5.00;99.90
10390;DHT22;5241;47.830;12.972;2023-04-20T06:39:19;5.00;99.90
10390;DHT22;5241;47.830;12.972;2023-04-20T06:41:44;5.40;99.90
10390;DHT22;5241;47.830;12.972;2023-04-20T06:44:10;5.40;99.90
10390;DHT22;5241;47.830;12.972;2023-04-20T06:46:36;5.40;99.90
10390;DHT22;5241;47.830;12.972;2023-04-20T06:49:01;5.60;99.90
10390;DHT22;5241;47.830;12.972;2023-04-20T06:51:28;5.90;99.90
10390;DHT22;5241;47.830;12.972;2023-04-20T06:53:54;6.10;99.90
10390;DHT22;5241;47.830;12.972;2023-04-20T06:56:20;6.80;99.90
10390;DHT22;5241;47.830;12.972;2023-04-20T06:58:46;6.80;99.90
10390;DHT22;5241;47.830;12.972;2023-04-20T07:01:12;7.10;99.90
10390;DHT22;5241;47.830;12.972;2023-04-20T07:03:38;6.80;99.90
10390;DHT22;5241;47.830;12.972;2023-04-20T07:06:04;7.00;99.90
10390;DHT22;5241;47.830;12.972;2023-04-20T07:08:31;7.30;99.90
10390;DHT22;5241;47.830;12.972;2023-04-20T07:10:57;7.50;99.90
10390;DHT22;5241;47.830;12.972;2023-04-20T07:13:23;6.90;99.90
10390;DHT22;5241;47.830;12.972;2023-04-20T07:15:49;6.70;99.90
10390;DHT22;5241;47.830;12.972;2023-04-20T07:18:14;7.10;99.90
10390;DHT22;5241;47.830;12.972;2023-04-20T07:20:40;7.60;99.90
10390;DHT22;5241;47.830;12.972;2023-04-20T07:23:05;7.40;99.90
10390;DHT22;5241;47.830;12.972;2023-04-20T07:25:31;7.30;99.90
10390;DHT22;5241;47.830;12.972;2023-04-20T07:27:57;7.70;99.90
10390;DHT22;5241;47.830;12.972;2023-04-20T07:30:23;7.50;99.90
10390;DHT22;5241;47.830;12.972;2023-04-20T07:32:48;8.00;99.90
10390;DHT22;5241;47.830;12.972;2023-04-20T07:35:14;7.90;99.90
10390;DHT22;5241;47.830;12.972;2023-04-20T07:37:40;7.70;99.90
10390;DHT22;5241;47.830;12.972;2023-04-20T07:40:08;7.80;99.90
10390;DHT22;5241;47.830;12.972;2023-04-20T07:42:34;7.90;99.90
10390;DHT22;5241;47.830;12.972;2023-04-20T07:45:04;7.80;99.90
10390;DHT22;5241;47.830;12.972;2023-04-20T07:47:32;7.50;99.90
10390;DHT22;5241;47.830;12.972;2023-04-20T07:49:57;7.70;99.90
10390;DHT22;5241;47.830;12.972;2023-04-20T07:52:24;7.80;99.90
10390;DHT22;5241;47.830;12.972;2023-04-20T07:54:50;7.70;99.90
10390;DHT22;5241;47.830;12.972;2023-04-20T07:57:20;7.80;99.90
10390;DHT22;5241;47.830;12.972;2023-04-20T07:59:45;7.90;99.90
10390;DHT22;5241;47.830;12.972;2023-04-20T08:02:11;8.00;99.90
10390;DHT22;5241;47.830;12.972;2023-04-20T08:04:37;8.10;99.90
10390;DHT22;5241;47.830;12.972;2023-04-20T08:07:03;8.30;99.90
10390;DHT22;5241;47.830;12.972;2023-04-20T08:09:28;8.60;99.90
10390;DHT22;5241;47.830;12.972;2023-04-20T08:11:54;8.90;99.90
10390;DHT22;5241;47.830;12.972;2023-04-20T08:14:20;9.30;99.90
10390;DHT22;5241;47.830;12.972;2023-04-20T08:16:46;9.60;99.90
10390;DHT22;5241;47.830;12.972;2023-04-20T08:19:11;9.80;99.90
10390;DHT22;5241;47.830;12.972;2023-04-20T08:21:40;9.80;99.90
10390;DHT22;5241;47.830;12.972;2023-04-20T08:24:07;10.30;99.90
10390;DHT22;5241;47.830;12.972;2023-04-20T08:26:33;10.40;99.90
10390;DHT22;5241;47.830;12.972;2023-04-20T08:29:00;10.80;99.90
10390;DHT22;5241;47.830;12.972;2023-04-20T08:31:26;11.00;99.90
10390;DHT22;5241;47.830;12.972;2023-04-20T08:33:52;11.10;99.90
10390;DHT22;5241;47.830;12.972;2023-04-20T08:36:18;11.40;99.90
10390;DHT22;5241;47.830;12.972;2023-04-20T08:38:43;11.60;99.90
10390;DHT22;5241;47.830;12.972;2023-04-20T08:41:09;11.50;99.90
10390;DHT22;5241;47.830;12.972;2023-04-20T08:43:39;11.60;99.90
10390;DHT22;5241;47.830;12.972;2023-04-20T08:46:06;11.30;99.90
10390;DHT22;5241;47.830;12.972;2023-04-20T08:48:36;11.20;99.90
10390;DHT22;5241;47.830;12.972;2023-04-20T08:51:05;12.10;99.90
10390;DHT22;5241;47.830;12.972;2023-04-20T08:53:31;12.60;99.90
10390;DHT22;5241;47.830;12.972;2023-04-20T08:55:58;12.50;99.90
10390;DHT22;5241;47.830;12.972;2023-04-20T08:58:26;12.00;99.90
10390;DHT22;5241;47.830;12.972;2023-04-20T09:00:53;11.60;99.90
10390;DHT22;5241;47.830;12.972;2023-04-20T09:03:31;11.50;99.90
10390;DHT22;5241;47.830;12.972;2023-04-20T09:05:56;11.40;99.90
10390;DHT22;5241;47.830;12.972;2023-04-20T09:08:36;11.80;99.90
10390;DHT22;5241;47.830;12.972;2023-04-20T09:11:02;12.10;99.90
10390;DHT22;5241;47.830;12.972;2023-04-20T09:13:28;12.10;99.90
10390;DHT22;5241;47.830;12.972;2023-04-20T09:15:53;12.40;99.90
10390;DHT22;5241;47.830;12.972;2023-04-20T09:18:19;12.50;99.90
10390;DHT22;5241;47.830;12.972;2023-04-20T09:20:45;12.90;99.90
10390;DHT22;5241;47.830;12.972;2023-04-20T09:23:12;13.30;99.90
10390;DHT22;5241;47.830;12.972;2023-04-20T09:25:38;12.40;99.90
10390;DHT22;5241;47.830;12.972;2023-04-20T09:28:05;12.70;99.90
10390;DHT22;5241;47.830;12.972;2023-04-20T09:30:45;13.40;99.90
10390;DHT22;5241;47.830;12.972;2023-04-20T09:33:12;12.90;99.90
10390;DHT22;5241;47.830;12.972;2023-04-20T09:35:40;12.80;99.90
10390;DHT22;5241;47.830;12.972;2023-04-20T09:38:10;12.70;99.90
10390;DHT22;5241;47.830;12.972;2023-04-20T09:40:39;13.40;99.90
10390;DHT22;5241;47.830;12.972;2023-04-20T09:43:18;13.70;99.90
10390;DHT22;5241;47.830;12.972;2023-04-20T09:45:44;13.90;99.90
10390;DHT22;5241;47.830;12.972;2023-04-20T09:48:10;13.70;99.90
10390;DHT22;5241;47.830;12.972;2023-04-20T09:50:37;13.30;99.90
10390;DHT22;5241;47.830;12.972;2023-04-20T09:53:03;13.70;99.90
10390;DHT22;5241;47.830;12.972;2023-04-20T09:55:30;12.60;99.90
10390;DHT22;5241;47.830;12.972;2023-04-20T09:57:56;12.50;99.90
10390;DHT22;5241;47.830;12.972;2023-04-20T10:00:23;13.10;99.90
10390;DHT22;5241;47.830;12.972;2023-04-20T10:02:49;13.30;99.90
10390;DHT22;5241;47.830;12.972;2023-04-20T10:05:15;13.70;99.90
10390;DHT22;5241;47.830;12.972;2023-04-20T10:07:41;13.70;99.90
10390;DHT22;5241;47.830;12.972;2023-04-20T10:10:09;14.10;99.90
10390;DHT22;5241;47.830;12.972;2023-04-20T10:12:52;14.60;99.90
10390;DHT22;5241;47.830;12.972;2023-04-20T10:15:18;14.30;99.90
10390;DHT22;5241;47.830;12.972;2023-04-20T10:17:46;14.00;99.90
10390;DHT22;5241;47.830;12.972;2023-04-20T10:20:23;14.10;99.90
10390;DHT22;5241;47.830;12.972;2023-04-20T10:22:51;14.20;99.90
10390;DHT22;5241;47.830;12.972;2023-04-20T10:25:19;14.70;99.90
10390;DHT22;5241;47.830;12.972;2023-04-20T10:27:53;14.50;99.90
10390;DHT22;5241;47.830;12.972;2023-04-20T10:30:19;14.20;99.90
10390;DHT22;5241;47.830;12.972;2023-04-20T10:32:45;14.60;99.90
10390;DHT22;5241;47.830;12.972;2023-04-20T10:35:10;15.10;99.90
10390;DHT22;5241;47.830;12.972;2023-04-20T10:37:49;15.50;99.90
10390;DHT22;5241;47.830;12.972;2023-04-20T10:40:15;14.70;99.90
10390;DHT22;5241;47.830;12.972;2023-04-20T10:42:42;14.00;99.90
10390;DHT22;5241;47.830;12.972;2023-04-20T10:45:08;13.20;99.90
10390;DHT22;5241;47.830;12.972;2023-04-20T10:47:35;13.40;99.90
10390;DHT22;5241;47.830;12.972;2023-04-20T10:50:12;13.70;99.90
10390;DHT22;5241;47.830;12.972;2023-04-20T10:52:41;13.60;99.90
10390;DHT22;5241;47.830;12.972;2023-04-20T10:55:21;13.40;99.90
10390;DHT22;5241;47.830;12.972;2023-04-20T10:57:47;13.20;99.90
10390;DHT22;5241;47.830;12.972;2023-04-20T11:00:18;13.60;99.90
10390;DHT22;5241;47.830;12.972;2023-04-20T11:02:48;13.90;99.90
10390;DHT22;5241;47.830;12.972;2023-04-20T11:05:15;14.30;99.90
10390;DHT22;5241;47.830;12.972;2023-04-20T11:08:07;15.00;99.90
10390;DHT22;5241;47.830;12.972;2023-04-20T11:10:40;15.30;99.90
10390;DHT22;5241;47.830;12.972;2023-04-20T11:13:06;15.10;99.90
10390;DHT22;5241;47.830;12.972;2023-04-20T11:15:33;15.50;99.90
10390;DHT22;5241;47.830;12.972;2023-04-20T11:18:06;15.90;99.90
10390;DHT22;5241;47.830;12.972;2023-04-20T11:20:32;15.90;99.90
10390;DHT22;5241;47.830;12.972;2023-04-20T11:22:57;15.30;99.90
10390;DHT22;5241;47.830;12.972;2023-04-20T11:25:24;14.80;99.90
10390;DHT22;5241;47.830;12.972;2023-04-20T11:27:49;15.00;99.90
10390;DHT22;5241;47.830;12.972;2023-04-20T11:30:15;14.90;99.90
10390;DHT22;5241;47.830;12.972;2023-04-20T11:32:41;14.40;99.90
10390;DHT22;5241;47.830;12.972;2023-04-20T11:35:08;14.80;99.90
10390;DHT22;5241;47.830;12.972;2023-04-20T11:37:48;15.80;99.90
10390;DHT22;5241;47.830;12.972;2023-04-20T11:40:15;15.70;99.90
10390;DHT22;5241;47.830;12.972;2023-04-20T11:42:41;16.00;99.90
10390;DHT22;5241;47.830;12.972;2023-04-20T11:45:08;17.10;99.90
10390;DHT22;5241;47.830;12.972;2023-04-20T11:47:33;16.50;99.90
10390;DHT22;5241;47.830;12.972;2023-04-20T11:49:59;16.60;99.90
10390;DHT22;5241;47.830;12.972;2023-04-20T11:52:25;15.70;99.90
10390;DHT22;5241;47.830;12.972;2023-04-20T11:54:51;14.60;99.90
10390;DHT22;5241;47.830;12.972;2023-04-20T11:57:17;14.30;99.90
10390;DHT22;5241;47.830;12.972;2023-04-20T11:59:42;14.90;99.90
10390;DHT22;5241;47.830;12.972;2023-04-20T12:02:12;15.50;99.90
10390;DHT22;5241;47.830;12.972;2023-04-20T12:04:38;16.10;99.90
10390;DHT22;5241;47.830;12.972;2023-04-20T12:07:03;16.50;99.90
10390;DHT22;5241;47.830;12.972;2023-04-20T12:09:29;15.90;99.90
10390;DHT22;5241;47.830;12.972;2023-04-20T12:11:55;15.70;99.90
10390;DHT22;5241;47.830;12.972;2023-04-20T12:14:20;15.90;99.90
10390;DHT22;5241;47.830;12.972;2023-04-20T12:16:46;15.70;99.90
10390;DHT22;5241;47.830;12.972;2023-04-20T12:19:12;14.90;99.90
10390;DHT22;5241;47.830;12.972;2023-04-20T12:21:37;14.70;99.90
10390;DHT22;5241;47.830;12.972;2023-04-20T12:24:03;15.00;99.90
10390;DHT22;5241;47.830;12.972;2023-04-20T12:26:29;15.70;99.90
10390;DHT22;5241;47.830;12.972;2023-04-20T12:28:55;15.60;99.90
10390;DHT22;5241;47.830;12.972;2023-04-20T12:31:21;15.40;99.90
10390;DHT22;5241;47.830;12.972;2023-04-20T12:33:48;14.90;99.90
10390;DHT22;5241;47.830;12.972;2023-04-20T12:36:14;15.00;99.90
10390;DHT22;5241;47.830;12.972;2023-04-20T12:38:39;15.10;99.90
10390;DHT22;5241;47.830;12.972;2023-04-20T12:41:05;15.20;99.90
10390;DHT22;5241;47.830;12.972;2023-04-20T12:43:30;15.90;99.90
10390;DHT22;5241;47.830;12.972;2023-04-20T12:45:56;15.70;99.90
10390;DHT22;5241;47.830;12.972;2023-04-20T12:48:21;16.10;99.90
10390;DHT22;5241;47.830;12.972;2023-04-20T12:50:47;16.20;99.90
10390;DHT22;5241;47.830;12.972;2023-04-20T12:53:13;16.00;99.90
10390;DHT22;5241;47.830;12.972;2023-04-20T12:55:38;16.50;99.90
10390;DHT22;5241;47.830;12.972;2023-04-20T12:58:04;16.70;99.90
10390;DHT22;5241;47.830;12.972;2023-04-20T13:00:30;16.50;99.90
10390;DHT22;5241;47.830;12.972;2023-04-20T13:02:55;17.00;99.90
10390;DHT22;5241;47.830;12.972;2023-04-20T13:05:21;18.10;99.90
10390;DHT22;5241;47.830;12.972;2023-04-20T13:07:47;17.20;99.90
10390;DHT22;5241;47.830;12.972;2023-04-20T13:10:12;17.30;99.90
10390;DHT22;5241;47.830;12.972;2023-04-20T13:12:38;16.20;99.90
10390;DHT22;5241;47.830;12.972;2023-04-20T13:15:05;16.30;99.90
10390;DHT22;5241;47.830;12.972;2023-04-20T13:17:32;16.00;99.90
10390;DHT22;5241;47.830;12.972;2023-04-20T13:19:58;15.90;99.90
10390;DHT22;5241;47.830;12.972;2023-04-20T13:22:23;15.40;99.90
10390;DHT22;5241;47.830;12.972;2023-04-20T13:24:49;14.60;99.90
10390;DHT22;5241;47.830;12.972;2023-04-20T13:27:15;14.40;99.90
10390;DHT22;5241;47.830;12.972;2023-04-20T13:29:40;14.60;99.90
10390;DHT22;5241;47.830;12.972;2023-04-20T13:32:06;14.80;99.90
10390;DHT22;5241;47.830;12.972;2023-04-20T13:34:31;14.70;99.90
10390;DHT22;5241;47.830;12.972;2023-04-20T13:36:57;14.30;99.90
10390;DHT22;5241;47.830;12.972;2023-04-20T13:39:23;13.90;99.90
10390;DHT22;5241;47.830;12.972;2023-04-20T13:41:48;14.00;99.90
10390;DHT22;5241;47.830;12.972;2023-04-20T13:44:14;14.40;99.90
10390;DHT22;5241;47.830;12.972;2023-04-20T13:46:44;14.20;99.90
10390;DHT22;5241;47.830;12.972;2023-04-20T13:49:11;14.30;99.90
10390;DHT22;5241;47.830;12.972;2023-04-20T13:51:38;14.40;99.90
10390;DHT22;5241;47.830;12.972;2023-04-20T13:54:04;14.70;99.90
10390;DHT22;5241;47.830;12.972;2023-04-20T13:56:31;15.00;99.90
10390;DHT22;5241;47.830;12.972;2023-04-20T13:58:57;15.00;99.90
10390;DHT22;5241;47.830;12.972;2023-04-20T14:01:23;14.90;99.90
10390;DHT22;5241;47.830;12.972;2023-04-20T14:03:51;14.90;99.90
10390;DHT22;5241;47.830;12.972;2023-04-20T14:06:16;14.40;99.90
10390;DHT22;5241;47.830;12.972;2023-04-20T14:08:42;14.20;99.90
10390;DHT22;5241;47.830;12.972;2023-04-20T14:11:08;14.50;99.90
10390;DHT22;5241;47.830;12.972;2023-04-20T14:13:33;14.70;99.90
10390;DHT22;5241;47.830;12.972;2023-04-20T14:15:59;14.70;99.90
10390;DHT22;5241;47.830;12.972;2023-04-20T14:18:24;14.70;99.90
10390;DHT22;5241;47.830;12.972;2023-04-20T14:20:50;14.10;99.90
10390;DHT22;5241;47.830;12.972;2023-04-20T14:23:17;13.90;99.90
10390;DHT22;5241;47.830;12.972;2023-04-20T14:25:43;13.80;99.90
10390;DHT22;5241;47.830;12.972;2023-04-20T14:28:09;14.00;99.90
10390;DHT22;5241;47.830;12.972;2023-04-20T14:30:34;13.70;99.90
10390;DHT22;5241;47.830;12.972;2023-04-20T14:33:00;13.60;99.90
10390;DHT22;5241;47.830;12.972;2023-04-20T14:35:26;13.40;99.90
10390;DHT22;5241;47.830;12.972;2023-04-20T14:37:52;13.20;99.90
10390;DHT22;5241;47.830;12.972;2023-04-20T14:40:19;12.90;99.90
10390;DHT22;5241;47.830;12.972;2023-04-20T14:42:45;12.90;99.90
10390;DHT22;5241;47.830;12.972;2023-04-20T14:45:11;13.00;99.90
10390;DHT22;5241;47.830;12.972;2023-04-20T14:47:37;12.90;99.90
10390;DHT22;5241;47.830;12.972;2023-04-20T14:50:02;13.00;99.90
10390;DHT22;5241;47.830;12.972;2023-04-20T14:52:28;13.10;99.90
10390;DHT22;5241;47.830;12.972;2023-04-20T14:54:53;13.00;99.90
10390;DHT22;5241;47.830;12.972;2023-04-20T14:57:19;13.10;99.90
10390;DHT22;5241;47.830;12.972;2023-04-20T14:59:44;13.00;99.90
10390;DHT22;5241;47.830;12.972;2023-04-20T15:02:10;12.90;99.90
10390;DHT22;5241;47.830;12.972;2023-04-20T15:04:35;12.80;99.90
10390;DHT22;5241;47.830;12.972;2023-04-20T15:07:01;12.60;99.90
10390;DHT22;5241;47.830;12.972;2023-04-20T15:09:28;12.50;99.90
10390;DHT22;5241;47.830;12.972;2023-04-20T15:11:54;12.50;99.90
10390;DHT22;5241;47.830;12.972;2023-04-20T15:14:21;12.50;99.90
10390;DHT22;5241;47.830;12.972;2023-04-20T15:16:46;12.50;99.90
10390;DHT22;5241;47.830;12.972;2023-04-20T15:19:12;12.50;99.90
10390;DHT22;5241;47.830;12.972;2023-04-20T15:21:37;12.60;99.90
10390;DHT22;5241;47.830;12.972;2023-04-20T15:24:03;12.80;99.90
10390;DHT22;5241;47.830;12.972;2023-04-20T15:26:28;12.80;99.90
10390;DHT22;5241;47.830;12.972;2023-04-20T15:28:54;12.70;99.90
10390;DHT22;5241;47.830;12.972;2023-04-20T15:31:21;12.80;99.90
10390;DHT22;5241;47.830;12.972;2023-04-20T15:33:47;12.70;99.90